Time;durP1;ratioP1;P1;durP2;ratioP2;P2;SDS_P1;SDS_P2;PMS_P1;PMS_P2;Temp;Humidity;BMP_temperature;BMP_pressure;BME280_temperature;BME280_humidity;BME280_pressure;Samples;Min_cycle;Max_cycle;Signal;HPM_P1;HPM_P2
2022/04/24 09:43:15;;;;;;;9.13;4.38;;;21.50;72.30;;;;;;5963122;29;87837;-69
2022/04/24 09:46:26;;;;;;;5.22;4.72;;;21.50;72.50;;;;;;5989419;29;89413;-70
2022/04/24 09:49:31;;;;;;;14.27;6.43;;;21.50;72.60;;;;;;5979097;29;90084;-71
2022/04/24 09:52:33;;;;;;;7.57;5.03;;;21.50;73.20;;;;;;5981287;29;89186;-68
2022/04/24 09:55:37;;;;;;;8.93;5.10;;;21.50;73.20;;;;;;5967799;29;89279;-70
2022/04/24 09:58:41;;;;;;;9.85;5.60;;;21.50;73.50;;;;;;5968704;29;89136;-70
2022/04/24 10:01:44;;;;;;;7.45;4.65;;;21.50;73.50;;;;;;5967585;29;89102;-66
2022/04/24 10:04:47;;;;;;;9.93;5.75;;;21.50;73.50;;;;;;5969608;29;87995;-68
2022/04/24 10:07:51;;;;;;;12.70;6.00;;;21.50;73.60;;;;;;5969041;29;89121;-70
2022/04/24 10:10:53;;;;;;;10.07;5.72;;;21.50;73.50;;;;;;5969736;29;88746;-68
2022/04/24 10:14:03;;;;;;;11.65;6.03;;;21.60;73.60;;;;;;5971595;29;89124;-69
2022/04/24 10:17:29;;;;;;;19.17;8.57;;;21.60;73.80;;;;;;5990894;29;89296;-68
2022/04/24 10:20:46;;;;;;;13.50;6.72;;;21.60;74.40;;;;;;5987128;29;90141;-68
2022/04/24 10:23:48;;;;;;;18.67;8.60;;;21.60;74.60;;;;;;5968168;29;89077;-68
2022/04/24 10:26:55;;;;;;;20.67;9.18;;;21.60;75.60;;;;;;5965583;29;89100;-68
2022/04/24 10:30:01;;;;;;;19.77;8.40;;;21.70;75.70;;;;;;5968995;29;89083;-69
2022/04/24 10:33:15;;;;;;;13.70;6.85;;;21.70;75.40;;;;;;5967975;29;89108;-69
2022/04/24 10:36:18;;;;;;;12.70;7.13;;;21.70;75.00;;;;;;5969034;29;89372;-68
2022/04/24 10:39:23;;;;;;;11.90;6.60;;;21.70;75.20;;;;;;5968627;29;88994;-68
2022/04/24 10:42:33;;;;;;;11.55;6.40;;;21.70;75.10;;;;;;5968662;29;89007;-69
2022/04/24 10:45:48;;;;;;;12.13;6.53;;;21.70;74.90;;;;;;5966186;29;89365;-69
2022/04/24 10:48:50;;;;;;;9.93;6.03;;;21.80;74.70;;;;;;5952735;29;89274;-68
2022/04/24 10:52:00;;;;;;;9.93;6.13;;;21.80;74.50;;;;;;5970338;29;90354;-68
2022/04/24 10:55:08;;;;;;;10.68;5.90;;;21.80;74.20;;;;;;5951075;29;88365;-68
2022/04/24 10:58:11;;;;;;;9.25;5.70;;;21.80;74.20;;;;;;5948386;29;89049;-68
2022/04/24 11:01:15;;;;;;;8.82;5.28;;;21.80;73.90;;;;;;5947631;29;88813;-69
2022/04/24 11:04:18;;;;;;;10.50;5.60;;;21.80;73.70;;;;;;5947962;29;89606;-68
2022/04/24 11:07:21;;;;;;;9.05;5.43;;;21.80;73.50;;;;;;5948225;29;89042;-68
2022/04/24 11:10:42;;;;;;;9.10;5.53;;;21.80;73.30;;;;;;5948093;29;88986;-66
2022/04/24 11:13:44;;;;;;;8.13;5.47;;;21.90;73.30;;;;;;5948276;29;87321;-68
2022/04/24 11:16:50;;;;;;;7.45;5.32;;;21.80;73.40;;;;;;5947846;29;89142;-68
2022/04/24 11:20:00;;;;;;;9.63;5.35;;;21.90;73.50;;;;;;5947722;29;88998;-69
2022/04/24 11:23:05;;;;;;;9.82;5.43;;;21.80;73.40;;;;;;5947214;29;90060;-68
2022/04/24 11:26:09;;;;;;;7.05;4.80;;;21.80;73.20;;;;;;5947687;29;87655;-68
2022/04/24 11:29:12;;;;;;;7.80;5.00;;;21.80;73.20;;;;;;5948072;29;89304;-68
2022/04/24 11:32:17;;;;;;;8.13;5.13;;;21.80;73.00;;;;;;5947486;29;89417;-69
2022/04/24 11:35:19;;;;;;;7.82;5.07;;;21.90;72.90;;;;;;5947511;29;89103;-69
2022/04/24 11:38:30;;;;;;;5.90;4.75;;;21.80;72.80;;;;;;5947686;29;89025;-68
2022/04/24 11:41:33;;;;;;;7.63;4.93;;;21.80;73.60;;;;;;5947537;29;89503;-67
2022/04/24 11:51:18;;;;;;;7.55;4.80;;;21.80;72.70;;;;;;5970690;29;87378;-69
2022/04/24 11:54:22;;;;;;;5.88;4.30;;;21.80;72.70;;;;;;5969688;29;90314;-69
2022/04/24 11:57:25;;;;;;;8.38;4.90;;;21.80;72.50;;;;;;5970287;29;89365;-68
2022/04/24 12:00:34;;;;;;;7.15;4.55;;;21.80;72.50;;;;;;5970017;29;89251;-69
2022/04/24 12:03:38;;;;;;;5.40;4.47;;;21.80;72.50;;;;;;5970002;29;89106;-68
2022/04/24 12:06:40;;;;;;;5.95;4.57;;;21.80;72.50;;;;;;5970526;29;89141;-69
2022/04/24 12:09:42;;;;;;;6.00;4.47;;;21.80;72.40;;;;;;5969458;29;87936;-69
2022/04/24 12:12:45;;;;;;;5.45;4.22;;;21.80;72.40;;;;;;5969917;29;89059;-68
2022/04/24 12:15:51;;;;;;;5.95;4.32;;;21.80;72.30;;;;;;5970308;29;88368;-68
2022/04/24 12:18:57;;;;;;;6.22;4.80;;;21.80;72.30;;;;;;5969733;29;88269;-68
2022/04/24 12:22:07;;;;;;;6.38;4.43;;;21.80;72.30;;;;;;5970017;29;89157;-69
2022/04/24 12:25:11;;;;;;;6.97;4.38;;;21.80;72.30;;;;;;5969079;29;90267;-69
2022/04/24 12:28:13;;;;;;;7.05;4.28;;;21.80;72.30;;;;;;5969371;29;89065;-68
2022/04/24 12:31:22;;;;;;;7.15;4.55;;;21.80;72.30;;;;;;5969831;29;89104;-69
2022/04/24 12:34:36;;;;;;;6.63;4.00;;;21.80;72.30;;;;;;5969336;29;89092;-68
2022/04/24 12:37:38;;;;;;;5.10;4.00;;;21.80;72.20;;;;;;5970043;29;89101;-69
2022/04/24 12:40:40;;;;;;;6.13;4.43;;;21.80;72.20;;;;;;5973460;29;89563;-66
2022/04/24 12:43:42;;;;;;;4.65;3.95;;;21.80;72.10;;;;;;5973193;29;89134;-69
2022/04/24 12:46:46;;;;;;;4.68;4.00;;;21.80;72.10;;;;;;5973285;29;88529;-69
2022/04/24 12:49:50;;;;;;;4.90;4.18;;;21.80;72.00;;;;;;5973595;29;89097;-69
2022/04/24 12:52:52;;;;;;;5.05;4.13;;;21.80;72.00;;;;;;5973142;29;89130;-69
2022/04/24 12:55:56;;;;;;;5.25;4.18;;;21.80;72.00;;;;;;5972625;29;89938;-68
2022/04/24 12:58:59;;;;;;;5.60;4.22;;;21.80;71.90;;;;;;5972924;29;89169;-69
2022/04/24 13:02:01;;;;;;;4.55;4.15;;;21.80;71.80;;;;;;5972495;29;88912;-69
2022/04/24 13:05:05;;;;;;;5.95;3.92;;;21.80;71.80;;;;;;5972976;29;89100;-68
2022/04/24 13:08:08;;;;;;;4.05;3.60;;;21.80;71.80;;;;;;5972879;29;89226;-69
2022/04/24 13:11:10;;;;;;;4.68;4.18;;;21.80;71.70;;;;;;5972898;29;88038;-69
2022/04/24 13:14:12;;;;;;;4.55;3.75;;;21.80;71.70;;;;;;5972903;29;89122;-68
2022/04/24 13:20:38;;;;;;;5.20;3.83;;;21.80;71.70;;;;;;5972824;29;87200;-67
2022/04/24 13:23:40;;;;;;;4.38;3.80;;;21.80;71.70;;;;;;5972930;29;88281;-69
2022/04/24 13:26:43;;;;;;;4.05;3.53;;;21.80;71.60;;;;;;5972194;29;89947;-67
2022/04/24 13:29:45;;;;;;;4.78;3.78;;;21.80;71.70;;;;;;5972893;29;89493;-68
2022/04/24 13:32:47;;;;;;;4.30;3.90;;;21.80;71.60;;;;;;5972453;29;89116;-69
2022/04/24 13:35:50;;;;;;;5.03;3.88;;;21.80;71.70;;;;;;5972579;29;89407;-68
2022/04/24 13:38:52;;;;;;;4.43;3.80;;;21.80;71.70;;;;;;5972940;29;89139;-68
2022/04/24 13:41:54;;;;;;;4.63;3.90;;;21.80;71.80;;;;;;5972563;29;88822;-67
2022/04/24 13:44:56;;;;;;;3.78;3.47;;;21.80;71.60;;;;;;5972268;29;89132;-69
2022/04/24 13:47:59;;;;;;;3.97;3.65;;;21.80;71.60;;;;;;5972683;29;88734;-68
2022/04/24 13:51:02;;;;;;;4.45;3.45;;;21.80;71.60;;;;;;5972474;29;89400;-68
2022/04/24 13:54:05;;;;;;;3.95;3.55;;;21.80;71.60;;;;;;5972465;29;88334;-68
2022/04/24 13:57:07;;;;;;;4.63;3.78;;;21.80;71.60;;;;;;5971694;29;90174;-67
2022/04/24 14:00:11;;;;;;;3.97;3.50;;;21.80;71.60;;;;;;5972331;29;89072;-69
2022/04/24 14:03:13;;;;;;;4.97;3.40;;;21.80;71.60;;;;;;5972055;29;89356;-68
2022/04/24 14:06:17;;;;;;;4.40;3.50;;;21.80;71.60;;;;;;5972287;29;89002;-68
2022/04/24 14:09:19;;;;;;;3.72;3.30;;;21.80;71.60;;;;;;5971852;29;89200;-68
2022/04/24 14:12:21;;;;;;;3.80;3.50;;;21.80;71.60;;;;;;5971845;29;89353;-69
2022/04/24 14:15:26;;;;;;;3.75;3.33;;;21.80;71.60;;;;;;5971697;29;88230;-69
2022/04/24 14:18:28;;;;;;;3.88;3.35;;;21.80;71.50;;;;;;5972168;29;87183;-68
2022/04/24 14:21:32;;;;;;;3.38;3.08;;;21.80;71.60;;;;;;5972118;29;89124;-68
2022/04/24 14:24:34;;;;;;;3.90;3.50;;;21.80;71.60;;;;;;5971401;29;89109;-68
2022/04/24 14:27:36;;;;;;;4.05;3.20;;;21.80;71.60;;;;;;5970797;29;90026;-68
2022/04/24 14:30:38;;;;;;;3.08;2.78;;;21.80;71.60;;;;;;5971634;29;89386;-69
2022/04/24 14:33:41;;;;;;;3.65;3.05;;;21.80;71.60;;;;;;5971809;29;89187;-68
2022/04/24 14:36:45;;;;;;;4.30;3.30;;;21.80;71.50;;;;;;5971424;29;88787;-68
2022/04/24 14:39:47;;;;;;;3.70;3.33;;;21.80;71.50;;;;;;5971726;29;88002;-69
2022/04/24 14:42:49;;;;;;;3.50;3.20;;;21.80;71.50;;;;;;5971570;29;89169;-69
2022/04/24 14:55:53;;;;;;;3.05;2.78;;;21.80;71.50;;;;;;5971334;29;87374;-69
2022/04/24 14:58:55;;;;;;;3.30;3.00;;;21.80;71.50;;;;;;5970231;29;91913;-69
2022/04/24 15:01:57;;;;;;;3.40;3.10;;;21.80;71.50;;;;;;5965403;29;88238;-69
2022/04/24 15:05:00;;;;;;;3.15;2.85;;;21.80;71.50;;;;;;5947555;29;90954;-69
2022/04/24 15:08:04;;;;;;;3.63;3.03;;;21.80;71.40;;;;;;5946863;29;89140;-69
2022/04/24 15:11:06;;;;;;;3.17;2.88;;;21.80;71.50;;;;;;5950095;29;89102;-68
2022/04/24 15:14:08;;;;;;;3.13;2.80;;;21.80;71.50;;;;;;5947322;29;89067;-68
2022/04/24 15:17:11;;;;;;;3.03;2.47;;;21.80;71.30;;;;;;5949531;29;89507;-68
2022/04/24 15:20:13;;;;;;;3.55;2.40;;;21.80;71.20;;;;;;5945009;29;88381;-68
2022/04/24 15:23:18;;;;;;;3.65;2.53;;;21.80;71.00;;;;;;5954241;29;89049;-68
2022/04/24 15:26:21;;;;;;;2.70;2.40;;;21.80;71.10;;;;;;5959025;29;89043;-69
2022/04/24 15:29:24;;;;;;;3.83;2.50;;;21.80;71.30;;;;;;5970499;29;90086;-69
2022/04/24 15:32:26;;;;;;;2.80;2.50;;;21.80;71.40;;;;;;5970718;29;89194;-69
2022/04/24 15:35:28;;;;;;;3.28;2.50;;;21.80;71.50;;;;;;5970545;29;87982;-68
2022/04/24 15:38:32;;;;;;;3.95;2.60;;;21.80;71.50;;;;;;5969976;29;89435;-69
2022/04/24 15:41:35;;;;;;;3.53;2.30;;;21.80;71.50;;;;;;5970451;29;89136;-69
2022/04/24 15:47:53;;;;;;;4.38;2.55;;;21.80;71.50;;;;;;5970137;29;88700;-68
2022/04/24 15:50:55;;;;;;;2.90;2.42;;;21.80;71.50;;;;;;5970728;29;88708;-69
2022/04/24 15:53:59;;;;;;;3.53;2.60;;;21.70;71.40;;;;;;5970350;29;89514;-69
2022/04/24 15:57:03;;;;;;;2.78;2.38;;;21.70;71.50;;;;;;5970198;29;89557;-69
2022/04/24 16:00:06;;;;;;;3.60;2.20;;;21.80;71.50;;;;;;5969281;29;90030;-69
2022/04/24 16:03:08;;;;;;;3.05;2.25;;;21.80;71.50;;;;;;5970010;29;89102;-69
2022/04/24 16:06:10;;;;;;;2.47;2.28;;;21.80;71.50;;;;;;5969548;29;89446;-69
2022/04/24 16:09:14;;;;;;;3.67;2.33;;;21.80;71.40;;;;;;5970200;29;89544;-68
2022/04/24 16:12:16;;;;;;;2.72;2.33;;;21.70;71.40;;;;;;5970395;29;89076;-69
2022/04/24 16:15:18;;;;;;;2.83;2.30;;;21.70;71.30;;;;;;5973181;29;90057;-69
2022/04/24 16:18:20;;;;;;;3.78;2.50;;;21.70;71.40;;;;;;5974284;29;89055;-69
2022/04/24 16:21:22;;;;;;;2.97;2.30;;;21.70;71.40;;;;;;5974378;29;88396;-69
2022/04/24 16:24:25;;;;;;;3.55;2.30;;;21.70;71.30;;;;;;5973716;29;89148;-69
2022/04/24 16:27:27;;;;;;;4.00;2.30;;;21.80;71.40;;;;;;5973085;29;87998;-68
2022/04/24 16:30:29;;;;;;;3.35;2.50;;;21.70;71.40;;;;;;5973380;29;90369;-68
2022/04/24 16:33:32;;;;;;;3.75;2.38;;;21.70;71.30;;;;;;5972787;29;89104;-69
2022/04/24 16:36:34;;;;;;;3.60;2.20;;;21.70;71.30;;;;;;5973637;29;89101;-68
2022/04/24 16:39:37;;;;;;;3.97;2.65;;;21.70;71.30;;;;;;5973705;29;89066;-68
2022/04/24 16:42:41;;;;;;;2.63;2.20;;;21.70;71.30;;;;;;5973538;29;89480;-68
2022/04/24 16:45:43;;;;;;;4.57;2.47;;;21.70;71.40;;;;;;5972941;29;89072;-68
2022/04/24 16:48:45;;;;;;;3.22;2.40;;;21.70;71.40;;;;;;5973139;29;89144;-68
2022/04/24 16:58:46;;;;;;;3.33;2.35;;;21.70;71.30;;;;;;5973348;29;87665;-68
2022/04/24 17:01:48;;;;;;;3.47;2.30;;;21.70;71.30;;;;;;5972803;29;90242;-69
2022/04/24 17:04:51;;;;;;;3.10;2.50;;;21.70;71.20;;;;;;5973467;29;89430;-68
2022/04/24 17:07:53;;;;;;;3.25;2.30;;;21.80;71.20;;;;;;5973088;29;89448;-69
2022/04/24 17:10:56;;;;;;;3.28;2.70;;;21.70;71.30;;;;;;5972740;29;89126;-68
2022/04/24 17:13:58;;;;;;;3.25;2.58;;;21.70;71.10;;;;;;5973151;29;89309;-68
2022/04/24 17:17:00;;;;;;;3.13;2.67;;;21.70;71.30;;;;;;5972980;29;89521;-68
2022/04/24 17:20:02;;;;;;;3.42;2.72;;;21.80;71.20;;;;;;5973216;29;89300;-69
2022/04/24 17:23:05;;;;;;;3.53;2.80;;;21.70;71.20;;;;;;5973247;29;88338;-68
2022/04/24 17:26:08;;;;;;;4.10;3.10;;;21.70;71.10;;;;;;5972288;29;89300;-69
2022/04/24 17:29:10;;;;;;;4.00;2.95;;;21.80;71.20;;;;;;5972340;29;89009;-68
2022/04/24 17:32:14;;;;;;;4.15;3.05;;;21.70;71.10;;;;;;5971797;29;90087;-69
2022/04/24 17:35:18;;;;;;;3.63;3.08;;;21.70;71.20;;;;;;5972172;29;89277;-68
2022/04/24 17:38:20;;;;;;;5.15;3.70;;;21.70;71.20;;;;;;5972808;29;89092;-68
2022/04/24 17:41:25;;;;;;;4.43;3.50;;;21.70;71.20;;;;;;5972419;29;89253;-68
2022/04/24 17:44:27;;;;;;;4.35;3.35;;;21.80;71.30;;;;;;5972457;29;89414;-69
2022/04/24 17:47:29;;;;;;;4.18;3.30;;;21.70;71.10;;;;;;5972375;29;89276;-68
2022/04/24 17:50:32;;;;;;;4.32;3.60;;;21.70;71.10;;;;;;5972410;29;89638;-69
2022/04/24 17:53:34;;;;;;;5.10;3.80;;;21.70;71.10;;;;;;5973224;29;88674;-69
2022/04/24 17:56:38;;;;;;;4.15;3.60;;;21.80;71.10;;;;;;5972578;29;89220;-68
2022/04/24 17:59:40;;;;;;;5.47;4.05;;;21.80;71.10;;;;;;5971980;29;88894;-68
